Terminal Aerodrome Forecast
Issued by NWS

Home | Current Version | Previous Version | Text Only | Print | Product List | Glossary On
Versions: 1 2 3 4 5 6 7 8 9 10 11 12 13 14 15 16 17 18 19 20 21 22 23 24 25 26 27 28 29 30
793
FTUS41 KOKX 080532
TAFSWF
TAF
KSWF 080532Z 0806/0912 VRB04KT P6SM SCT150
     FM081400 27008KT P6SM BKN120
     FM081800 29012G20KT P6SM FEW050
     FM082300 28012G20KT P6SM SCT020=

USA.gov is the U.S. government's official web portal to all federal, state and local government web resources and services.